Groundwater Watch Latest News...



Cochise County, Arizona
Click site symbol to open information pop-up. Click Station ID in pop-up for information and data.
Map loading slowly? Try a different browser. Web browser performance varies significantly.
Explanation of symbols on the state map.

Map generated 2/28/2020 12:18:18 PM
Groundwater Watch
Help Page
     

Network wells depicted on the Cochise County, AZ location map
Note: Color shading in the table below indicates multiple wells that plot as a single point on the state location map above.
Note: BLS = Water Level in Feet Below Land Surface, RVD = Water Level referenced to a vertical datum
Map
Index
Site ID Site NameMost Recent
Measurement
DateWell
Depth
Local Aquifer
1 312044110141901 D-24-21 17BCB3 [Baumkirchner 3]  32.26 BLS 2/27/2020   123.67  
2 312053110153001 D-24-20 13AAD 203.5  BLS 2/5/2020     683.  
3 312127110073101 D-24-22 08DBA1 [PLS-LI]   4.59 BLS 1/8/2020      17.  
4 312127110073301 D-24-22 08DBA2 [PLS-LO]   8.79 BLS 1/8/2020      19.  
5 312207110070702 D-24-22 04CBA4 [PAL-UD]  14.59 BLS 1/8/2020      32.  
6 312208110070502 D-24-22 04CBA2 [PAL-LD]  -2.25 BLS 1/8/2020      24.  
7 312214110071601 D-24-22 04CBC1 [PALUWS]  18.45 BLS 1/8/2020    36.5   
8 312214110071602 D-24-22 04CBC2 [PALUWD]  17.57 BLS 1/8/2020    73.5   
9 312226110062101 D-24-22 04ADD [PAL-SA]  32.00 BLS 1/8/2020      49.  
10 312250110063901 D-23-22 33DCD2 [PAL Deep]  16.5  BLS 7/18/2019    91.5   
11 312318110071901 D-23-22 33BCC [PALO FIREHOUSE]  41.90 BLS 1/8/2020     220.   Holocene Alluvium
12 312323110020901 D-23-23 32BCB [Foudy] 264.0  BLS 6/27/2019     270.  
13 312332110063801 D-23-22 33ABD02 [ULLRICH]  16.67 BLS 1/8/2020     200.   Holocene Alluvium
14 312357110073901 D-23-22 29DBD1 [3-CAN S]  75.70 BLS 1/8/2020     460.  
15 312417110074801 D-23-22 29ACB1 [3-CAN N]  77.29 BLS 1/8/2020     460.  
16 312453110061101 D-23-22 22CBB3 [KOL-UP]   8.96 BLS 1/8/2020      16.  
17 312453110061301 D-23-22 22CBB2 [KOL-LO]   8.57 BLS 1/8/2020      20.  
18 312453110061401 D-23-22 22CBB1 [KOL-LI]   8.97 BLS 1/8/2020      20.  
19 312642110063701 D-23-22 09ACD1 [HERSUS]  15.57 BLS 1/8/2020      93.  
20 312642110063702 D-23-22 09ACD2 [HERSUD]  15.78 BLS 1/8/2020     134.  
21 312712110152101 D-23-21 06CCC2 [Rambo]  17.2  BLS 6/26/2019     675.  
22 312716110063201 D-23-22 04DCD1 [HER-LS]   0.07 BLS 1/8/2020    14.23  
23 312716110063202 D-23-22 04DCD2 [HER-LD]   0.46 BLS 1/8/2020    22.82  
24 312716110063301 D-23-22 04DCD3 [HERUES]   4.66 BLS 1/8/2020      20.  
25 312716110063302 D-23-22 04DCD4 [HERUED]   2.06 BLS 1/8/2020      28.  
26 312830110102301 D-22-21 35ADD1 PZ1 [Ranch Deep] 141.7  BLS 7/18/2019     240.  
27 312830110102302 D-22-21 35ADD1 PZ2 [Ranch Shallow] 141.8  BLS 7/18/2019     180.  
28 312843110070801 D-22-22 33BBC [HUN-UP]  24.17 BLS 1/8/2020      31.  
29 312853110070401 D-22-22 28CCD [HUN-SO]   3.83 BLS 1/8/2020      15.  
30 312900110071001 D-22-22 28CAA2 [HUN-LO]   3.25 BLS 1/8/2020      15.  
31 312943110165401 D-22-20 26ABB1 [Antelope 3] 112.8  BLS 6/26/2019     290.  
32 313024110050701 D-22-22 23BCA [Misty Ray] 234.6  BLS 6/25/2019    
33 313105110074501 D-22-22 17ACC3 [COTBLM]  15.38 BLS 1/9/2020    22.5   
34 313108110075202 D-22-22 17BDD2 [COTUWD]   2.74 BLS 1/9/2020    68.5   
35 313110110074401 D-22-22 17ACC1 [COT-LS]   3.76 BLS 1/9/2020     8.5   
36 313110110074402 D-22-22 17ACC2 [COT-LD]  -1.63 BLS 1/9/2020    12.8   
37 313210110105701 D-22-21 11BDA1 [SB Ranch] 121.1  BLS 6/25/2019     225.  
38 313309110094301 D-22-22 06ABD [LSP-6]  28.65 BLS 1/3/2020     180.  
39 313312110081302 D-22-22 05BBD2 [LSPUED]   8.85 BLS 1/7/2020    53.5   
40 313312110082301 D-22-22 06AAA4 [LSP-4]  11.16 BLS 2/27/2020      24.  
41 313312110082302 D-22-22 06AAA6 [LSP-1]  10.71 BLS 1/3/2020    34.5   
42 313312110082303 D-22-22 06AAA5 [LSP-5]   4.96 BLS 1/3/2020     180.  
43 313312110082501 D-22-22 06AAA7 [LSP-2]   4.80 BLS 1/3/2020     199.  
44 313312110082502 D-22-22 06AAA3 [LSP-3]  10.12 BLS 1/3/2020      24.  
45 313421110121401 D-21-21 27CBD [Bella Vista]  99.5  BLS 7/18/2019     150.  
46 313502110145701 D-21-21 19CDD1 [MW-3] 247.36 BLS 1/7/2020     400.  
47 313508110085701 D-21-22 19CDB1 [CLRSUS]  15.57 BLS 1/9/2020    63.5   
48 313508110085702 D-21-22 19CDB2 [CLRSUD]  14.65 BLS 1/9/2020   173.5   
49 313530110135601 D-21-21 20ACC1 [MW-4] 187.82 BLS 1/7/2020     215.  
50 313610110163201 D-21-20 14DAD1 [MW-6] 284.78 BLS 1/7/2020     400.  
51 313615110175601 D-21-20 15ACD1 [TW-4] 302.51 BLS 1/7/2020     807.  
52 313618110162301 D-21-20 13CBD1 [TW-8] 272.07 BLS 1/7/2020    1501.  
53 313622110142101 D-21-21 17BCC1 [TW-9] 182.04 BLS 1/7/2020    1005.  
54 313633110122501 D-21-21 16AAD1 [MW-5]  95.95 BLS 1/7/2020     115.  
55 313638110095901 D-21-21 13BAC1 [MOSWAS]  10.16 BLS 1/9/2020    24.2   
56 313642110100102 D-21-21 13BAB4 [MOSLNW]   6.99 BLS 1/9/2020    20.2   
57 313643110100101 D-21-21 13BAB1 [MOSLNS]   3.97 BLS 1/9/2020    12.79  
58 313643110100102 D-21-21 13BAB2 [MOSLND]   4.01 BLS 1/9/2020    20.79  
59 313706110171601 D-21-20 11BCD1 [TW-7] 238.64 BLS 1/7/2020    1002.  
60 313721110112401 D-21-21 10ADA1 [MW-1]  68.18 BLS 1/7/2020     180.  
61 313729110182501 D-21-20 10BBD1 [TW-9W] 242.10 BLS 1/7/2020     819.   Basement
62 313729110185601 D-21-20 09ABC1 [MW-2] 257.74 BLS 1/7/2020     400.  
63 313738110102901 D-21-21 02DDC [CHB-LI]   5.60 BLS 1/10/2020      21.  
64 313841110122201 D-20-21 33CDD1 [MW-7] 105.02 BLS 1/7/2020     220.  
65 313845110165201 D-20-20 35CCB1 [TW-6] 169.73 BLS 1/7/2020    1004.  
66 314114110211201 D-20-19 13DDC1 [RAIN] 283.04 BLS 1/6/2020  630     
67 314124110105801 D-20-21 15DDB [BOQ-UP]  21.41 BLS 1/10/2020      36.  
68 314144110104701 D-20-21 14BCC1 [BOQSUS]  26.71 BLS 1/10/2020    53.5   
69 314144110104702 D-20-21 14BCC2 [BOQSUD]  12.19 BLS 1/10/2020   178.5   
70 314248110105901 D-20-21 10AAC2 [FBK-UP]  32.60 BLS 1/10/2020      50.  
71 314317110113401 D-20-21 03CBA [FBK-LI]  13.49 BLS 1/10/2020      18.  
72 314318110113101 D-20-21 03CAB [FBK-LO]  14.15 BLS 1/10/2020    22.8   
73 314511110120601 D-19-21 28ACD [TOM-LI]   7.03 BLS 1/10/2020    17.6   


Springs depicted on the Cochise County , AZ location map
Map
Index
Site ID Site NameMost Recent
Measurement
Date
SP1 313228110092701 D-21-21 36DDA [HORSETHIEF]0.02 CFS 10/24/2019
SP2 313425110102301 D-21-21 26DAD [MURRAY]0.31 CFS 10/24/2019
SP3 313456110081901 D-21-22 30AAA [LEWIS]0.06 CFS 10/24/2019
SP4 313624110101401 D-21-21 13BCC [MOSON]0.03 CFS 10/24/2019


   


*References to non-Department of the Interior (DOI) products do not constitute an endorsement by the DOI.

*References to non-Department of the Interior (DOI) products do not constitute an endorsement by the DOI.

Accessibility FOIA Privacy Policies and Notices

Take Pride in America logo USA.gov logo U.S. Department of the Interior | U.S. Geological Survey
URL: https://groundwaterwatch.usgs.gov/countymap.asp
Page Contact Information: Contact the GroundWater Watch Support Team
Last update: Tuesday, September 24, 2019 at 08:55

Page displayed in 8,252.458 seconds.